createdAt,value
2018-11-23T00:02:19.109Z,57.90
2018-11-23T00:04:49.478Z,56.92
2018-11-23T00:07:18.981Z,63.33
2018-11-23T00:10:08.049Z,57.95
2018-11-23T00:12:38.041Z,54.95
2018-11-23T00:15:26.590Z,54.67
2018-11-23T00:17:56.794Z,56.13
2018-11-23T00:20:45.319Z,54.38
2018-11-23T00:23:14.844Z,53.87
2018-11-23T00:25:44.384Z,49.93
2018-11-23T00:28:32.864Z,52.23
2018-11-23T00:31:02.966Z,52.65
2018-11-23T00:33:32.881Z,54.95
2018-11-23T00:36:02.701Z,56.58
2018-11-23T00:38:32.855Z,56.90
2018-11-23T00:41:02.822Z,53.23
2018-11-23T00:43:51.581Z,52.70
2018-11-23T00:46:40.375Z,46.83
2018-11-23T00:49:10.288Z,56.30
2018-11-23T00:51:39.922Z,50.92
2018-11-23T00:54:09.437Z,57.60
2018-11-23T00:56:38.942Z,51.83
2018-11-23T00:59:09.468Z,56.02
2018-11-23T01:01:57.626Z,50.38
2018-11-23T01:04:28.065Z,54.67
2018-11-23T01:07:16.570Z,62.48
2018-11-23T01:10:05.272Z,66.33
2018-11-23T01:12:54.693Z,53.48
2018-11-23T01:15:24.226Z,62.38
2018-11-23T01:18:13.024Z,62.15
2018-11-23T01:20:42.539Z,61.50
2018-11-23T01:23:31.131Z,53.13
2018-11-23T01:26:00.669Z,61.73
2018-11-23T01:28:41.696Z,56.33
2018-11-23T01:31:11.210Z,64.27
2018-11-23T01:33:40.774Z,50.78
2018-11-23T01:36:10.243Z,54.67
2018-11-23T01:38:59.030Z,53.13
2018-11-23T01:41:29.257Z,57.90
2018-11-23T01:43:59.596Z,55.95
2018-11-23T01:46:29.451Z,61.18
2018-11-23T01:48:59.063Z,59.55
2018-11-23T01:51:47.788Z,56.77
2018-11-23T01:54:17.339Z,50.23
2018-11-23T01:57:06.094Z,51.15
2018-11-23T01:59:35.698Z,53.33
2018-11-23T02:02:05.843Z,47.05
2018-11-23T02:04:35.668Z,52.48
2018-11-23T02:07:05.635Z,47.43
2018-11-23T02:09:35.785Z,52.65
2018-11-23T02:12:05.261Z,52.55
2018-11-23T02:14:34.830Z,54.38
2018-11-23T02:17:23.330Z,51.28
2018-11-23T02:19:54.828Z,43.95
2018-11-23T02:22:25.577Z,48.73
2018-11-23T02:24:55.510Z,51.98
2018-11-23T02:27:25.460Z,54.53
2018-11-23T02:29:55.265Z,55.45
2018-11-23T02:32:44.424Z,56.18
2018-11-23T02:35:33.252Z,64.20
2018-11-23T02:38:22.091Z,59.93
2018-11-23T02:41:10.882Z,50.60
2018-11-23T02:43:41.023Z,52.27
2018-11-23T02:46:10.895Z,54.80
2018-11-23T02:48:59.415Z,48.15
2018-11-23T02:51:29.713Z,46.13
2018-11-23T02:53:59.251Z,56.13
2018-11-23T02:56:48.113Z,50.10
2018-11-23T02:59:18.057Z,51.73
2018-11-23T03:01:47.573Z,49.08
2018-11-23T03:04:36.344Z,49.10
2018-11-23T03:07:06.426Z,48.45
2018-11-23T03:09:36.933Z,52.05
2018-11-23T03:12:25.678Z,52.55
2018-11-23T03:14:55.726Z,49.63
2018-11-23T03:17:45.073Z,50.35
2018-11-23T03:20:33.649Z,50.30
2018-11-23T03:23:03.430Z,59.00
2018-11-23T03:25:33.742Z,50.58
2018-11-23T03:28:03.244Z,51.28
2018-11-23T03:30:32.771Z,47.58
2018-11-23T03:33:02.626Z,54.05
2018-11-23T03:35:51.140Z,52.10
2018-11-23T03:38:39.382Z,61.33
2018-11-23T03:41:09.533Z,52.60
2018-11-23T03:43:39.128Z,53.05
2018-11-23T03:46:09.178Z,52.48
2018-11-23T03:48:38.650Z,53.13
2018-11-23T03:51:27.197Z,56.68
2018-11-23T03:54:16.306Z,50.15
2018-11-23T03:56:46.153Z,53.83
2018-11-23T03:59:34.490Z,56.28
2018-11-23T04:02:04.325Z,49.13
2018-11-23T04:07:28.369Z,55.28
2018-11-23T04:10:17.629Z,64.45
2018-11-23T04:13:06.733Z,51.77
2018-11-23T04:15:36.230Z,46.90
2018-11-23T04:18:05.764Z,51.00
2018-11-23T04:20:35.630Z,50.43
2018-11-23T04:23:05.119Z,47.62
2018-11-23T04:25:34.922Z,43.20
2018-11-23T04:28:23.468Z,42.73
2018-11-23T04:30:53.266Z,49.38
2018-11-23T04:33:23.061Z,54.80
2018-11-23T04:36:11.590Z,43.42
2018-11-23T04:38:41.704Z,48.60
2018-11-23T04:41:11.182Z,53.63
2018-11-23T04:43:59.989Z,47.05
2018-11-23T04:46:29.549Z,51.85
2018-11-23T04:49:18.052Z,45.38
2018-11-23T04:51:47.847Z,52.83
2018-11-23T04:54:17.344Z,44.95
2018-11-23T04:57:05.794Z,51.13
2018-11-23T04:59:35.988Z,55.25
2018-11-23T05:02:24.762Z,46.23
2018-11-23T05:05:13.818Z,52.48
2018-11-23T05:07:44.706Z,47.45
2018-11-23T05:10:15.713Z,52.93
2018-11-23T05:12:45.605Z,49.80
2018-11-23T05:15:34.107Z,47.67
2018-11-23T05:18:22.847Z,55.65
2018-11-23T05:20:52.683Z,59.20
2018-11-23T05:23:22.230Z,58.55
2018-11-23T05:25:51.755Z,56.92
2018-11-23T05:28:21.561Z,52.00
2018-11-23T05:30:51.352Z,61.88
2018-11-23T05:33:20.883Z,62.85
2018-11-23T05:36:10.624Z,57.33
2018-11-23T05:38:59.097Z,56.08
2018-11-23T05:41:48.069Z,59.10
2018-11-23T05:44:18.077Z,54.77
2018-11-23T05:47:07.050Z,53.52
2018-11-23T05:49:55.610Z,43.52
2018-11-23T05:52:44.777Z,55.43
2018-11-23T05:55:14.340Z,56.98
2018-11-23T05:57:44.470Z,47.67
2018-11-23T06:00:33.541Z,48.15
2018-11-23T06:03:22.005Z,47.38
2018-11-23T06:06:10.865Z,44.48
2018-11-23T06:08:40.799Z,50.48
2018-11-23T06:11:29.679Z,51.35
2018-11-23T06:14:18.526Z,49.53
2018-11-23T06:17:07.035Z,48.40
2018-11-23T06:19:56.093Z,51.98
2018-11-23T06:22:45.073Z,50.08
2018-11-23T06:25:52.495Z,53.08
2018-11-23T06:28:41.011Z,48.63
2018-11-23T06:31:10.577Z,45.48
2018-11-23T06:33:58.831Z,43.28
2018-11-23T06:36:47.918Z,47.05
2018-11-23T06:39:36.519Z,54.30
2018-11-23T06:42:06.460Z,49.88
2018-11-23T06:44:36.019Z,45.23
2018-11-23T06:47:05.573Z,45.23
2018-11-23T06:49:35.794Z,49.53
2018-11-23T06:52:05.302Z,41.40
2018-11-23T06:54:34.795Z,51.65
2018-11-23T06:57:23.559Z,49.38
2018-11-23T06:59:53.288Z,47.67
2018-11-23T07:02:23.221Z,47.15
2018-11-23T07:04:52.787Z,46.20
2018-11-23T07:07:22.346Z,50.35
2018-11-23T07:09:52.081Z,52.23
2018-11-23T07:12:41.111Z,42.58
2018-11-23T07:15:12.278Z,45.75
2018-11-23T07:18:00.802Z,45.43
2018-11-23T07:20:49.580Z,45.12
2018-11-23T07:23:38.069Z,45.83
2018-11-23T07:26:26.543Z,46.80
2018-11-23T07:28:56.369Z,44.30
2018-11-23T07:31:25.870Z,41.40
2018-11-23T07:33:55.715Z,55.50
2018-11-23T07:36:44.175Z,52.15
2018-11-23T07:39:51.609Z,53.60
2018-11-23T07:42:40.087Z,56.18
2018-11-23T07:45:28.745Z,48.78
2018-11-23T07:47:58.882Z,47.88
2018-11-23T07:50:47.302Z,45.35
2018-11-23T07:53:35.802Z,55.35
2018-11-23T07:56:05.383Z,47.90
2018-11-23T07:58:35.251Z,48.00
2018-11-23T08:01:05.196Z,49.70
2018-11-23T08:03:34.740Z,52.88
2018-11-23T08:06:04.531Z,48.40
2018-11-23T08:08:34.284Z,54.45
2018-11-23T08:11:07.515Z,52.03
2018-11-23T08:13:55.947Z,45.20
2018-11-23T08:16:44.378Z,43.90
2018-11-23T08:19:14.277Z,44.73
2018-11-23T08:22:02.814Z,51.05
2018-11-23T08:24:32.354Z,46.83
2018-11-23T08:27:01.815Z,46.58
2018-11-23T08:29:31.668Z,52.08
2018-11-23T08:32:01.265Z,48.75
2018-11-23T08:34:31.203Z,44.85
2018-11-23T08:37:20.356Z,41.40
2018-11-23T08:39:50.421Z,38.10
2018-11-23T08:42:20.914Z,40.45
2018-11-23T08:45:10.452Z,40.30
2018-11-23T08:47:41.684Z,40.92
2018-11-23T08:50:30.600Z,40.85
2018-11-23T08:53:00.507Z,40.98
2018-11-23T08:55:30.312Z,38.80
2018-11-23T08:58:00.409Z,39.98
2018-11-23T09:00:48.879Z,39.45
2018-11-23T09:03:18.674Z,39.63
2018-11-23T09:05:48.221Z,48.85
2018-11-23T09:08:18.787Z,41.75
2018-11-23T09:11:07.563Z,39.05
2018-11-23T09:13:37.774Z,49.60
2018-11-23T09:16:08.177Z,41.65
2018-11-23T09:18:56.651Z,41.02
2018-11-23T09:21:26.603Z,47.08
2018-11-23T09:23:56.393Z,41.98
2018-11-23T09:26:26.243Z,44.93
2018-11-23T09:29:14.734Z,40.25
2018-11-23T09:31:44.549Z,44.08
2018-11-23T09:34:14.088Z,42.43
2018-11-23T09:36:43.582Z,45.67
2018-11-23T09:39:13.129Z,43.83
2018-11-23T09:42:01.319Z,48.52
2018-11-23T09:44:31.227Z,45.55
2018-11-23T09:47:19.394Z,55.50
2018-11-23T09:50:07.963Z,48.00
2018-11-23T09:52:58.066Z,43.92
2018-11-23T09:55:29.096Z,40.60
2018-11-23T09:57:58.602Z,43.80
2018-11-23T10:00:47.383Z,52.20
2018-11-23T10:03:16.955Z,42.15
2018-11-23T10:05:46.504Z,43.73
2018-11-23T10:08:16.012Z,43.15
2018-11-23T10:10:45.523Z,40.70
2018-11-23T10:13:15.083Z,41.48
2018-11-23T10:16:03.649Z,40.20
2018-11-23T10:18:33.178Z,42.38
2018-11-23T10:21:21.357Z,44.42
2018-11-23T10:24:09.849Z,48.63
2018-11-23T10:26:39.491Z,43.30
2018-11-23T10:29:27.650Z,42.10
2018-11-23T10:32:16.178Z,45.00
2018-11-23T10:35:04.398Z,39.85
2018-11-23T10:37:54.323Z,46.90
2018-11-23T10:40:25.181Z,37.33
2018-11-23T10:42:54.717Z,42.58
2018-11-23T10:45:25.972Z,42.48
2018-11-23T10:47:56.640Z,38.35
2018-11-23T10:50:27.905Z,36.42
2018-11-23T10:52:57.406Z,34.15
2018-11-23T10:55:28.601Z,37.25
2018-11-23T10:57:58.466Z,34.48
2018-11-23T11:00:46.685Z,34.75
2018-11-23T11:03:34.884Z,51.33
2018-11-23T11:06:42.030Z,34.33
2018-11-23T11:09:11.942Z,32.35
2018-11-23T11:12:01.697Z,29.42
2018-11-23T11:14:31.812Z,29.00
2018-11-23T11:17:01.737Z,35.33
2018-11-23T11:19:50.143Z,41.25
2018-11-23T11:22:19.598Z,30.85
2018-11-23T11:24:49.482Z,35.28
2018-11-23T11:27:19.012Z,37.65
2018-11-23T11:29:48.577Z,36.33
2018-11-23T11:32:18.389Z,35.83
2018-11-23T11:34:48.284Z,35.10
2018-11-23T11:37:18.123Z,31.03
2018-11-23T11:39:47.638Z,28.70
2018-11-23T11:42:17.481Z,28.30
2018-11-23T11:45:06.871Z,30.95
2018-11-23T11:47:36.548Z,25.97
2018-11-23T11:50:08.233Z,30.87
2018-11-23T11:52:39.271Z,23.20
2018-11-23T11:55:10.879Z,23.60
2018-11-23T11:57:40.740Z,22.07
2018-11-23T12:00:12.993Z,22.87
2018-11-23T12:02:42.547Z,24.00
2018-11-23T12:05:12.995Z,20.90
2018-11-23T12:07:43.131Z,18.53
2018-11-23T12:10:15.549Z,18.20
2018-11-23T12:13:04.026Z,19.93
2018-11-23T12:15:34.332Z,18.43
2018-11-23T12:18:03.842Z,20.93
2018-11-23T12:20:52.291Z,22.87
2018-11-23T12:23:21.945Z,22.90
2018-11-23T12:26:10.489Z,20.03
2018-11-23T12:28:40.021Z,20.43
2018-11-23T12:31:10.117Z,20.10
2018-11-23T12:33:39.647Z,19.67
2018-11-23T12:36:09.185Z,17.57
2018-11-23T12:38:43.024Z,18.70
2018-11-23T12:41:08.547Z,16.97
2018-11-23T12:43:57.040Z,21.13
2018-11-23T12:46:26.814Z,18.13
2018-11-23T12:49:15.027Z,15.70
2018-11-23T12:52:03.497Z,17.00
2018-11-23T12:54:33.503Z,19.87
2018-11-23T12:57:22.595Z,17.27
2018-11-23T13:00:10.800Z,16.30
2018-11-23T13:02:40.958Z,15.80
2018-11-23T13:08:05.529Z,17.20
2018-11-23T13:10:35.753Z,18.17
2018-11-23T13:13:05.897Z,18.60
2018-11-23T13:15:54.676Z,14.27
2018-11-23T13:18:24.169Z,12.50
2018-11-23T13:20:53.741Z,13.30
2018-11-23T13:23:24.277Z,10.70
2018-11-23T13:25:53.803Z,10.93
2018-11-23T13:28:42.703Z,12.57
2018-11-23T13:31:31.159Z,10.60
2018-11-23T13:34:00.687Z,11.07
2018-11-23T13:36:30.552Z,12.90
2018-11-23T13:39:00.493Z,17.80
2018-11-23T13:41:30.011Z,10.10
2018-11-23T13:43:59.567Z,14.30
2018-11-23T13:46:29.095Z,14.13
2018-11-23T13:48:58.886Z,16.40
2018-11-23T13:51:48.495Z,13.90
2018-11-23T13:54:18.296Z,12.10
2018-11-23T13:56:48.312Z,10.00
2018-11-23T13:59:36.512Z,11.07
2018-11-23T14:02:25.588Z,16.42
2018-11-23T14:04:55.362Z,13.83
2018-11-23T14:07:25.901Z,14.35
2018-11-23T14:09:55.499Z,16.53
2018-11-23T14:12:44.325Z,17.50
2018-11-23T14:15:15.785Z,15.48
2018-11-23T14:18:04.022Z,25.82
2018-11-23T14:20:33.846Z,17.23
2018-11-23T14:23:22.327Z,16.40
2018-11-23T14:25:52.064Z,15.60
2018-11-23T14:28:22.569Z,15.77
2018-11-23T14:30:52.178Z,16.73
2018-11-23T14:33:22.097Z,13.37
2018-11-23T14:35:51.644Z,15.87
2018-11-23T14:38:21.517Z,18.07
2018-11-23T14:40:51.499Z,14.65
2018-11-23T14:43:21.061Z,20.25
2018-11-23T14:45:50.971Z,18.53
2018-11-23T14:48:39.471Z,15.65
2018-11-23T14:51:09.043Z,14.40
2018-11-23T14:53:57.505Z,13.72
2018-11-23T14:56:46.006Z,17.75
2018-11-23T14:59:15.915Z,13.50
2018-11-23T15:02:04.436Z,15.90
2018-11-23T15:04:34.358Z,17.57
2018-11-23T15:07:04.219Z,16.15
2018-11-23T15:09:33.764Z,21.35
2018-11-23T15:12:03.277Z,20.57
2018-11-23T15:14:51.769Z,22.35
2018-11-23T15:17:21.679Z,17.00
2018-11-23T15:19:51.263Z,17.52
2018-11-23T15:22:20.869Z,17.52
2018-11-23T15:24:50.469Z,20.92
2018-11-23T15:27:39.377Z,17.17
2018-11-23T15:30:32.275Z,21.50
2018-11-23T15:33:02.359Z,17.50
2018-11-23T15:35:33.091Z,23.80
2018-11-23T15:38:06.048Z,19.30
2018-11-23T15:40:33.190Z,22.40
2018-11-23T15:43:21.483Z,30.55
2018-11-23T15:45:51.586Z,26.10
2018-11-23T15:48:40.399Z,25.00
2018-11-23T15:51:10.956Z,19.25
2018-11-23T15:53:59.360Z,22.30
2018-11-23T15:56:47.879Z,19.25
2018-11-23T15:59:17.666Z,16.70
2018-11-23T16:01:47.223Z,20.32
2018-11-23T16:04:39.530Z,18.73
2018-11-23T16:07:05.316Z,39.00
2018-11-23T16:09:53.799Z,29.18
2018-11-23T16:12:23.703Z,22.40
2018-11-23T16:14:53.204Z,20.72
2018-11-23T16:17:22.843Z,18.57
2018-11-23T16:19:52.752Z,14.55
2018-11-23T16:25:20.107Z,15.18
2018-11-23T16:27:49.907Z,12.00
2018-11-23T16:30:22.270Z,13.75
2018-11-23T16:32:51.746Z,16.45
2018-11-23T16:35:21.554Z,12.82
2018-11-23T16:37:50.344Z,12.68
2018-11-23T16:40:21.141Z,13.32
2018-11-23T16:42:49.746Z,14.30
2018-11-23T16:45:21.601Z,13.62
2018-11-23T16:47:53.717Z,22.30
2018-11-23T16:50:22.380Z,17.40
2018-11-23T16:52:51.237Z,14.03
2018-11-23T16:55:20.805Z,15.83
2018-11-23T16:57:51.739Z,15.00
2018-11-23T17:08:52.112Z,17.62
2018-11-23T17:11:20.582Z,20.08
2018-11-23T17:13:49.410Z,14.05
2018-11-23T17:16:17.866Z,22.27
2018-11-23T17:18:46.228Z,18.77
2018-11-23T17:21:14.567Z,11.80
2018-11-23T17:23:42.855Z,18.00
2018-11-23T17:26:11.342Z,17.10
2018-11-23T17:28:39.751Z,13.20
2018-11-23T17:31:08.228Z,20.55
2018-11-23T17:33:36.783Z,16.30
2018-11-23T17:36:05.639Z,11.68
2018-11-23T17:38:37.729Z,16.80
2018-11-23T17:41:02.594Z,17.25
2018-11-23T17:43:31.129Z,17.87
2018-11-23T17:45:59.416Z,15.95
2018-11-23T17:48:28.436Z,15.30
2018-11-23T17:50:58.617Z,17.65
2018-11-23T17:53:36.046Z,18.90
2018-11-23T17:56:04.401Z,17.45
2018-11-23T17:58:32.767Z,15.30
2018-11-23T18:03:52.305Z,16.80
2018-11-23T18:06:20.791Z,17.35
2018-11-23T18:08:49.681Z,16.70
2018-11-23T18:11:18.064Z,16.12
2018-11-23T18:13:46.923Z,17.77
2018-11-23T18:16:15.634Z,15.23
2018-11-23T18:18:44.226Z,17.12
2018-11-23T18:21:12.725Z,17.65
2018-11-23T18:23:41.332Z,18.73
2018-11-23T18:26:09.791Z,19.48
2018-11-23T18:28:38.134Z,15.30
2018-11-23T18:31:07.396Z,16.10
2018-11-23T18:33:36.248Z,19.75
2018-11-23T18:36:06.494Z,21.73
2018-11-23T18:38:34.917Z,22.85
2018-11-23T18:41:03.438Z,23.87
2018-11-23T18:43:31.828Z,21.00
2018-11-23T18:46:00.302Z,22.67
2018-11-23T18:48:28.655Z,18.90
2018-11-23T18:50:56.985Z,19.70
2018-11-23T18:53:25.327Z,25.70
2018-11-23T18:55:53.702Z,25.05
2018-11-23T18:58:22.141Z,23.45
2018-11-23T19:00:50.474Z,30.70
2018-11-23T19:03:18.832Z,25.75
2018-11-23T19:05:47.163Z,27.27
2018-11-23T19:08:15.583Z,22.65
2018-11-23T19:10:44.012Z,36.80
2018-11-23T19:13:12.580Z,24.27
2018-11-23T19:15:41.930Z,26.82
2018-11-23T19:18:10.254Z,26.23
2018-11-23T19:20:38.574Z,27.58
2018-11-23T19:23:07.322Z,32.90
2018-11-23T19:25:35.681Z,31.27
2018-11-23T19:28:04.156Z,29.45
2018-11-23T19:30:32.489Z,27.42
2018-11-23T19:33:01.664Z,24.23
2018-11-23T19:35:29.519Z,32.10
2018-11-23T19:37:57.939Z,33.75
2018-11-23T19:40:26.366Z,29.00
2018-11-23T19:42:55.278Z,30.27
2018-11-23T19:45:24.187Z,36.38
2018-11-23T19:47:52.681Z,34.58
2018-11-23T19:50:21.339Z,31.70
2018-11-23T19:52:49.751Z,32.78
2018-11-23T19:55:18.558Z,32.23
2018-11-23T19:57:47.129Z,32.83
2018-11-23T20:00:19.772Z,35.15
2018-11-23T20:02:48.314Z,33.02
2018-11-23T20:05:16.692Z,37.35
2018-11-23T20:07:45.944Z,30.82
2018-11-23T20:10:15.648Z,33.85
2018-11-23T20:12:45.084Z,31.75
2018-11-23T20:16:45.519Z,33.02
2018-11-23T20:19:14.044Z,36.15
2018-11-23T20:21:42.389Z,32.08
2018-11-23T20:24:10.682Z,36.90
2018-11-23T20:26:39.311Z,32.50
2018-11-23T20:29:07.780Z,38.02
2018-11-23T20:31:36.209Z,34.75
2018-11-23T20:34:04.498Z,32.08
2018-11-23T20:36:32.835Z,34.75
2018-11-23T20:39:01.100Z,35.88
2018-11-23T20:41:29.857Z,41.00
2018-11-23T20:43:58.416Z,38.65
2018-11-23T20:46:27.249Z,41.58
2018-11-23T20:48:55.771Z,38.15
2018-11-23T20:51:24.202Z,40.50
2018-11-23T20:53:52.770Z,34.00
2018-11-23T20:56:21.102Z,42.33
2018-11-23T20:58:49.640Z,39.65
2018-11-23T21:01:17.996Z,36.70
2018-11-23T21:03:46.496Z,35.78
2018-11-23T21:13:09.799Z,44.23
2018-11-23T21:15:38.169Z,38.45
2018-11-23T21:18:07.216Z,38.90
2018-11-23T21:20:35.636Z,37.80
2018-11-23T21:23:04.194Z,44.77
2018-11-23T21:25:32.612Z,37.38
2018-11-23T21:28:01.150Z,47.33
2018-11-23T21:30:29.506Z,40.85
2018-11-23T21:34:01.208Z,32.42
2018-11-23T21:36:29.515Z,34.18
2018-11-23T21:38:57.992Z,38.28
2018-11-23T21:41:29.773Z,33.23
2018-11-23T21:43:54.626Z,32.15
2018-11-23T21:46:23.159Z,37.95
2018-11-23T21:48:51.662Z,30.55
2018-11-23T21:51:20.053Z,29.75
2018-11-23T21:53:48.576Z,31.05
2018-11-23T21:56:17.053Z,36.55
2018-11-23T21:58:45.390Z,28.92
2018-11-23T22:01:13.736Z,31.35
2018-11-23T22:03:42.013Z,32.90
2018-11-23T22:06:10.378Z,32.85
2018-11-23T22:08:38.693Z,31.87
2018-11-23T22:11:07.324Z,29.75
2018-11-23T22:13:35.970Z,27.93
2018-11-23T22:16:04.543Z,31.80
2018-11-23T22:18:33.004Z,32.23
2018-11-23T22:21:01.479Z,33.00
2018-11-23T22:23:30.090Z,27.22
2018-11-23T22:25:59.159Z,29.92
2018-11-23T22:28:27.615Z,29.82
2018-11-23T22:30:56.021Z,31.97
2018-11-23T22:33:24.339Z,32.13
2018-11-23T22:35:52.670Z,31.45
2018-11-23T22:38:21.102Z,30.97
2018-11-23T22:40:49.512Z,30.55
2018-11-23T22:43:17.973Z,35.88
2018-11-23T22:45:46.394Z,33.13
2018-11-23T22:48:15.000Z,31.60
2018-11-23T22:50:43.327Z,29.72
2018-11-23T22:53:11.762Z,29.45
2018-11-23T22:55:40.135Z,32.15
2018-11-23T22:58:08.454Z,29.72
2018-11-23T23:00:41.208Z,27.90
2018-11-23T23:03:10.320Z,33.02
2018-11-23T23:05:39.831Z,35.52
2018-11-23T23:08:07.024Z,30.43
2018-11-23T23:10:35.410Z,34.40
2018-11-23T23:13:03.869Z,34.90
2018-11-23T23:15:32.328Z,33.73
2018-11-23T23:18:00.694Z,28.70
2018-11-23T23:20:29.055Z,33.05
2018-11-23T23:22:58.924Z,31.42
2018-11-23T23:25:28.272Z,32.50
2018-11-23T23:27:56.958Z,32.53
2018-11-23T23:30:26.113Z,34.45
2018-11-23T23:32:54.551Z,30.15
2018-11-23T23:35:23.089Z,28.30
2018-11-23T23:37:51.451Z,26.73
2018-11-23T23:40:20.192Z,27.65
2018-11-23T23:42:49.409Z,26.30
2018-11-23T23:45:19.025Z,31.60
2018-11-23T23:47:49.633Z,28.15
2018-11-23T23:50:19.691Z,28.92
2018-11-23T23:52:49.006Z,27.90
2018-11-23T23:55:17.704Z,31.05
2018-11-23T23:57:47.618Z,26.80
